Flight Track Log - Related Links

Times and Time Zones

All times are in EDT time to prevent confusion due to time zone crossing. See the N935SS flight status page for this flight to view local times or setup timezone preferences in your user account.


Time Position Orientation Groundspeed Altitude Reporting Facility
EDT Latitude Longitude Course Direction KTS MPH feet Rate Location/Type
Thu 09:16:41 PM 42.3667 -70.9833 241° Southwest 196 226 600  Level KA90
Thu 09:17:23 PM 42.3667 -70.9167 90° East 219 252 2,400 3,267 Climbing KA90
Thu 09:18:22 PM 42.3869 -70.8406 70° East 277 319 6,100 3,050 Climbing Boston Center
Thu 09:19:23 PM 42.3753 -70.7453 99° East 277 319 8,500 3,025 Climbing Boston Center
Thu 09:20:23 PM 42.2978 -70.7278 171° South 226 260 12,200 2,874 Climbing Boston Center
Thu 09:21:22 PM 42.2425 -70.7856 218° Southwest 189 217 14,200 2,571 Climbing Boston Center
Thu 09:22:00 PM 42.1326 -71.5820 241° Southwest  Level FlightAware Approximate
Thu 09:22:22 PM 42.2186 -70.8786 251° West 199 229 17,300  Level Boston Center
Thu 09:23:23 PM 42.2075 -70.9769 261° West 241 277 19,300 2,262 Climbing Boston Center
Thu 09:24:24 PM 42.1922 -71.0783 259° West 268 308 21,900 1,328 Climbing Boston Center
Thu 09:25:25 PM 42.1789 -71.1906 261° West 290 334 22,000 51 Climbing Boston Center
Thu 09:26:22 PM 42.1553 -71.3200 256° West 328 377 22,000  Level Boston Center
Thu 09:27:23 PM 42.1356 -71.4575 259° West 361 415 22,000  Level Boston Center
Thu 09:28:23 PM 42.1078 -71.6117 256° West 374 430 22,000  Level Boston Center
Thu 09:29:23 PM 42.0858 -71.7603 259° West 392 451 22,000  Level Boston Center
Thu 09:30:24 PM 42.0636 -71.9033 258° West 398 458 22,000  Level Boston Center
Thu 09:31:22 PM 42.0433 -72.0486 259° West 398 458 22,000 -252 Level Boston Center
Thu 09:32:23 PM 42.0186 -72.1914 257° West 398 458 21,500 -1,024 Descending Boston Center
Thu 09:33:25 PM 41.9981 -72.3311 259° West 393 452 19,900 -1,563 Descending Boston Center
Thu 09:34:22 PM 41.9772 -72.4597 258° West 376 433 18,400 -1,538 Descending Boston Center
Thu 09:35:22 PM 41.9586 -72.5853 259° West 352 405 16,900 -1,190 Descending Boston Center
Thu 09:36:23 PM 41.9269 -72.7219 253° West 366 421 16,000 -700 Descending Boston Center
Thu 09:37:22 PM 41.8767 -72.8417 241° Southwest 371 427 15,500 -807 Descending Boston Center
Thu 09:38:22 PM 41.8281 -72.9611 241° Southwest 371 427 14,400 -1,041 Descending Boston Center
Thu 09:39:23 PM 41.7858 -73.0636 241° Southwest 366 421 13,400 -1,082 Descending Boston Center
Thu 09:40:24 PM 41.7331 -73.1883 240° Southwest 354 407 12,200 -706 Descending Boston Center
Thu 09:41:22 PM 41.6928 -73.2853 241° Southwest 349 402 12,000 -555 Descending Boston Center
Thu 09:42:23 PM 41.6397 -73.4039 239° Southwest 344 396 11,100 -850 Descending Boston Center
Thu 09:43:22 PM 41.5931 -73.5114 240° Southwest 337 388 10,300 -900 Descending Boston Center
Thu 09:44:23 PM 41.5567 -73.6025 242° Southwest 306 352 9,300 -1,070 Descending Boston Center
Thu 09:45:59 PM 41.5000 -73.7333 240° Southwest 247 284 7,500 -1,154 Descending New York TRACON
Thu 09:46:59 PM 41.4500 -73.7833 217° Southwest 270 311 6,300 -1,350 Descending New York TRACON
Thu 09:47:59 PM 41.3833 -73.8000 191° South 251 289 4,800 -1,500 Descending New York TRACON
Thu 09:48:59 PM 41.3167 -73.8333 201° Southwest 253 291 3,300 -857 Descending New York TRACON
Thu 09:50:05 PM 41.2333 -73.8333 180° South 227 261 3,000 -143 Descending New York TRACON
Thu 09:51:05 PM 41.1833 -73.8000 153° Southeast 193 222 3,000 -450 Level New York TRACON
Thu 09:52:05 PM 41.1500 -73.7667 143° Southeast 170 196 2,100 -850 Descending New York TRACON
Thu 09:53:05 PM 41.1167 -73.7333 143° Southeast 147 169 1,300 -750 Descending New York TRACON
Thu 09:54:05 PM 41.0833 -73.7167 159° South 135 155 600 -700 Descending New York TRACON
Thu 09:56:00 PM 41.0669 -73.7076 255° West  Level Estimated

Login

Don't have an account? Register now (free) for customized features, flight alerts, and more!